createdAt,value
2019-02-09T00:00:37.303Z,83.41
2019-02-09T00:05:31.954Z,84.34
2019-02-09T00:10:26.604Z,84.49
2019-02-09T00:15:21.335Z,85.05
2019-02-09T00:20:19.731Z,85.11
2019-02-09T00:25:23.285Z,85.47
2019-02-09T00:30:20.840Z,85.22
2019-02-09T00:35:18.563Z,84.26
2019-02-09T00:40:17.622Z,84.86
2019-02-09T00:45:16.220Z,82.83
2019-02-09T00:50:14.681Z,82.99
2019-02-09T00:55:16.602Z,82.43
2019-02-09T01:00:15.756Z,81.96
2019-02-09T01:05:11.068Z,82.03
2019-02-09T01:10:10.248Z,83.15
2019-02-09T01:15:09.399Z,81.81
2019-02-09T01:20:06.071Z,81.28
2019-02-09T01:25:00.653Z,80.46
2019-02-09T01:30:02.196Z,78.75
2019-02-09T01:34:51.704Z,79.86
2019-02-09T01:39:46.310Z,79.81
2019-02-09T01:44:40.902Z,80.72
2019-02-09T01:49:35.501Z,80.48
2019-02-09T01:54:30.084Z,80.52
2019-02-09T01:59:24.742Z,79.40
2019-02-09T02:04:19.404Z,81.45
2019-02-09T02:09:13.968Z,81.47
2019-02-09T02:14:08.878Z,82.67
2019-02-09T02:19:03.545Z,82.94
2019-02-09T02:23:58.141Z,84.11
2019-02-09T02:28:52.717Z,86.28
2019-02-09T02:33:47.309Z,87.08
2019-02-09T02:38:41.898Z,87.17
2019-02-09T02:43:36.486Z,86.51
2019-02-09T02:48:31.072Z,85.38
2019-02-09T02:53:25.646Z,84.67
2019-02-09T02:58:20.231Z,83.54
2019-02-09T03:03:14.835Z,82.96
2019-02-09T03:08:09.423Z,81.96
2019-02-09T03:13:04.197Z,80.80
2019-02-09T03:17:59.518Z,79.50
2019-02-09T03:22:54.124Z,76.73
2019-02-09T03:27:48.837Z,76.11
2019-02-09T03:32:43.420Z,74.88
2019-02-09T03:37:38.145Z,75.80
2019-02-09T03:42:32.734Z,76.41
2019-02-09T03:47:27.321Z,76.04
2019-02-09T03:52:21.919Z,75.74
2019-02-09T03:57:16.644Z,74.30
2019-02-09T04:02:11.303Z,73.29
2019-02-09T04:07:06.046Z,72.99
2019-02-09T04:12:00.633Z,68.99
2019-02-09T04:16:55.232Z,68.46
2019-02-09T04:21:49.805Z,68.72
2019-02-09T04:26:44.379Z,68.57
2019-02-09T04:31:38.962Z,68.24
2019-02-09T04:36:33.560Z,69.40
2019-02-09T04:41:28.167Z,69.78
2019-02-09T04:46:22.746Z,69.07
2019-02-09T04:51:17.324Z,70.32
2019-02-09T04:56:11.915Z,71.71
2019-02-09T05:01:13.844Z,74.98
2019-02-09T05:06:02.876Z,78.24
2019-02-09T05:10:57.473Z,79.86
2019-02-09T05:15:52.053Z,79.57
2019-02-09T05:20:46.620Z,77.77
2019-02-09T05:25:41.448Z,77.87
2019-02-09T05:30:36.041Z,77.39
2019-02-09T05:35:30.613Z,77.51
2019-02-09T05:40:27.312Z,78.01
2019-02-09T05:45:28.634Z,79.74
2019-02-09T05:50:23.563Z,80.37
2019-02-09T05:55:19.835Z,79.81
2019-02-09T06:00:29.671Z,79.45
2019-02-09T06:05:24.508Z,79.17
2019-02-09T06:10:20.497Z,78.36
2019-02-09T06:15:21.989Z,77.72
2019-02-09T06:20:28.610Z,76.56
2019-02-09T06:25:23.482Z,76.33
2019-02-09T06:30:27.026Z,76.18
2019-02-09T06:35:21.728Z,75.92
2019-02-09T06:40:22.125Z,75.56
2019-02-09T06:45:25.634Z,74.68
2019-02-09T06:50:27.297Z,74.37
2019-02-09T06:55:21.927Z,74.00
2019-02-09T07:00:22.115Z,73.33
2019-02-09T07:05:20.651Z,72.11
2019-02-09T07:10:26.056Z,72.37
2019-02-09T07:15:27.741Z,73.16
2019-02-09T07:20:22.633Z,74.99
2019-02-09T07:25:17.948Z,75.32
2019-02-09T07:30:19.980Z,75.47
2019-02-09T07:35:15.667Z,74.61
2019-02-09T07:40:15.197Z,72.72
2019-02-09T07:45:20.502Z,72.22
2019-02-09T07:50:18.662Z,72.07
2019-02-09T07:55:17.681Z,72.06
2019-02-09T08:00:19.451Z,71.47
2019-02-09T08:05:15.161Z,70.63
2019-02-09T08:10:16.964Z,69.64
2019-02-09T08:15:15.967Z,69.62
2019-02-09T08:20:15.305Z,69.45
2019-02-09T08:25:17.338Z,68.31
2019-02-09T08:30:22.231Z,67.29
2019-02-09T08:35:16.870Z,66.39
2019-02-09T08:40:14.363Z,64.30
2019-02-09T08:45:16.036Z,65.10
2019-02-09T08:50:15.213Z,66.21
2019-02-09T08:55:09.926Z,66.58
2019-02-09T09:00:10.229Z,67.42
2019-02-09T09:05:09.823Z,68.00
2019-02-09T09:10:07.284Z,68.97
2019-02-09T09:15:01.873Z,68.93
2019-02-09T09:19:56.466Z,69.04
2019-02-09T09:24:51.050Z,67.82
2019-02-09T09:29:45.695Z,68.28
2019-02-09T09:34:40.295Z,68.87
2019-02-09T09:39:34.883Z,68.77
2019-02-09T09:44:29.464Z,69.50
2019-02-09T09:49:24.063Z,68.71
2019-02-09T09:54:18.694Z,68.21
2019-02-09T09:59:13.337Z,68.91
2019-02-09T10:04:07.983Z,68.67
2019-02-09T10:09:02.583Z,68.69
2019-02-09T10:13:57.185Z,68.76
2019-02-09T10:18:51.754Z,68.10
2019-02-09T10:23:46.431Z,66.69
2019-02-09T10:28:41.033Z,65.65
2019-02-09T10:33:35.617Z,64.31
2019-02-09T10:38:30.211Z,63.40
2019-02-09T10:43:24.810Z,63.29
2019-02-09T10:48:19.934Z,63.31
2019-02-09T10:53:14.693Z,62.38
2019-02-09T10:58:10.082Z,62.48
2019-02-09T11:03:06.109Z,62.04
2019-02-09T11:08:00.774Z,61.39
2019-02-09T11:12:55.436Z,61.12
2019-02-09T11:17:50.095Z,61.19
2019-02-09T11:22:44.689Z,60.82
2019-02-09T11:27:39.270Z,60.67
2019-02-09T11:32:33.863Z,60.14
2019-02-09T11:37:28.455Z,59.92
2019-02-09T11:42:23.105Z,59.64
2019-02-09T11:47:17.702Z,59.67
2019-02-09T11:52:12.306Z,58.39
2019-02-09T11:57:06.898Z,57.95
2019-02-09T12:02:01.501Z,57.68
2019-02-09T12:06:56.108Z,57.53
2019-02-09T12:11:50.692Z,57.31
2019-02-09T12:16:45.285Z,57.30
2019-02-09T12:21:40.765Z,57.50
2019-02-09T12:26:35.344Z,56.94
2019-02-09T12:31:29.930Z,55.64
2019-02-09T12:36:24.531Z,55.81
2019-02-09T12:41:19.140Z,55.85
2019-02-09T12:46:13.891Z,54.60
2019-02-09T12:51:08.460Z,55.07
2019-02-09T12:56:03.062Z,54.70
2019-02-09T13:00:57.658Z,55.30
2019-02-09T13:05:52.251Z,55.69
2019-02-09T13:10:47.011Z,55.19
2019-02-09T13:15:41.734Z,54.34
2019-02-09T13:20:36.387Z,53.67
2019-02-09T13:25:31.050Z,54.27
2019-02-09T13:30:35.903Z,54.74
2019-02-09T13:35:30.874Z,53.79
2019-02-09T13:40:28.068Z,52.32
2019-02-09T13:45:32.813Z,49.19
2019-02-09T13:50:29.802Z,47.73
2019-02-09T13:55:24.542Z,47.61
2019-02-09T14:00:28.426Z,47.53
2019-02-09T14:05:23.096Z,47.92
2019-02-09T14:10:20.879Z,48.94
2019-02-09T14:15:27.914Z,49.42
2019-02-09T14:20:22.804Z,54.17
2019-02-09T14:25:20.107Z,57.89
2019-02-09T14:30:24.116Z,58.88
2019-02-09T14:35:18.942Z,58.98
2019-02-09T14:40:26.457Z,59.50
2019-02-09T14:45:33.463Z,59.12
2019-02-09T14:50:28.275Z,58.80
2019-02-09T14:55:27.566Z,59.21
2019-02-09T15:00:35.545Z,59.80
2019-02-09T15:05:30.507Z,60.80
2019-02-09T15:10:25.233Z,61.51
2019-02-09T15:15:27.322Z,62.13
2019-02-09T15:20:41.242Z,62.60
2019-02-09T15:25:35.991Z,63.04
2019-02-09T15:30:32.490Z,63.44
2019-02-09T15:35:27.253Z,62.98
2019-02-09T15:40:23.418Z,63.44
2019-02-09T15:45:23.874Z,63.74
2019-02-09T15:50:19.459Z,63.28
2019-02-09T15:55:20.805Z,64.06
2019-02-09T16:00:22.092Z,64.41
2019-02-09T16:05:17.000Z,65.10
2019-02-09T16:10:15.915Z,65.41
2019-02-09T16:15:26.919Z,65.63
2019-02-09T16:20:24.625Z,65.97
2019-02-09T16:25:19.270Z,66.47
2019-02-09T16:30:20.949Z,66.44
2019-02-09T16:35:21.679Z,66.82
2019-02-09T16:40:20.501Z,67.03
2019-02-09T16:45:25.075Z,67.43
2019-02-09T16:50:22.175Z,67.86
2019-02-09T16:55:22.169Z,68.09
2019-02-09T17:00:41.689Z,68.71
2019-02-09T17:05:36.908Z,68.91
2019-02-09T17:10:31.566Z,69.11
2019-02-09T17:15:30.513Z,69.35
2019-02-09T17:20:25.234Z,69.48
2019-02-09T17:25:26.970Z,69.57
2019-02-09T17:30:30.986Z,69.46
2019-02-09T17:35:26.973Z,69.15
2019-02-09T17:40:43.679Z,69.63
2019-02-09T17:46:09.250Z,69.62
2019-02-09T17:51:04.021Z,70.30
2019-02-09T17:55:58.601Z,70.84
2019-02-09T18:00:54.904Z,71.49
2019-02-09T18:05:49.487Z,71.79
2019-02-09T18:10:44.070Z,72.03
2019-02-09T18:15:38.649Z,72.03
2019-02-09T18:20:33.233Z,71.99
2019-02-09T18:25:27.966Z,72.40
2019-02-09T18:30:33.035Z,72.39
2019-02-09T18:35:27.662Z,72.41
2019-02-09T18:40:27.732Z,72.69
2019-02-09T18:45:33.853Z,72.69
2019-02-09T18:50:32.817Z,72.85
2019-02-09T18:55:29.617Z,72.83
2019-02-09T19:00:37.409Z,72.99
2019-02-09T19:05:31.999Z,73.12
2019-02-09T19:10:29.654Z,73.17
2019-02-09T19:15:27.944Z,73.32
2019-02-09T19:20:29.697Z,73.26
2019-02-09T19:25:25.290Z,73.20
2019-02-09T19:30:27.756Z,73.04
2019-02-09T19:35:22.545Z,72.99
2019-02-09T19:40:20.532Z,72.89
2019-02-09T19:45:28.288Z,73.10
2019-02-09T19:50:23.014Z,72.59
2019-02-09T19:55:30.996Z,72.27
2019-02-09T20:00:32.500Z,72.09
2019-02-09T20:05:27.107Z,72.02
2019-02-09T20:10:29.487Z,72.00
2019-02-09T20:15:24.171Z,72.37
2019-02-09T20:20:20.183Z,72.38
2019-02-09T20:25:21.784Z,72.43
2019-02-09T20:30:20.642Z,72.19
2019-02-09T20:35:18.866Z,72.18
2019-02-09T20:40:23.614Z,72.25
2019-02-09T20:45:18.538Z,71.07
2019-02-09T20:50:16.615Z,70.87
2019-02-09T20:55:14.417Z,72.08
2019-02-09T21:00:30.676Z,72.37
2019-02-09T21:05:25.517Z,72.67
2019-02-09T21:10:29.922Z,73.05
2019-02-09T21:15:27.498Z,72.91
2019-02-09T21:20:22.156Z,73.60
2019-02-09T21:25:23.601Z,74.06
2019-02-09T21:30:23.491Z,73.98
2019-02-09T21:35:19.887Z,74.77
2019-02-09T21:40:21.015Z,74.19
2019-02-09T21:45:19.088Z,74.41
2019-02-09T21:50:23.881Z,74.51
2019-02-09T21:55:21.385Z,74.46
2019-02-09T22:00:29.016Z,74.20
2019-02-09T22:05:23.819Z,73.82
2019-02-09T22:10:30.212Z,74.06
2019-02-09T22:15:24.878Z,74.18
2019-02-09T22:20:22.555Z,74.57
2019-02-09T22:25:26.321Z,74.31
2019-02-09T22:30:27.611Z,74.77
2019-02-09T22:35:23.069Z,74.65
2019-02-09T22:40:21.763Z,74.54
2019-02-09T22:45:20.365Z,74.51
2019-02-09T22:50:40.139Z,74.43
2019-02-09T22:55:34.833Z,74.23
2019-02-09T23:00:41.500Z,74.74
2019-02-09T23:06:15.085Z,74.74
2019-02-09T23:11:09.746Z,75.02
2019-02-09T23:16:04.521Z,75.23
2019-02-09T23:20:59.145Z,74.96
2019-02-09T23:25:54.929Z,74.83
2019-02-09T23:30:49.954Z,74.73
2019-02-09T23:35:44.620Z,75.45
2019-02-09T23:40:39.208Z,75.92
2019-02-09T23:45:33.781Z,76.23
2019-02-09T23:50:28.363Z,75.87
2019-02-09T23:55:22.958Z,75.70
